This is the latest recevied weather packets stored in our database for station/object HK3BJ-12. If no packets are shown the sender has not sent any weather packets the latest 10 day(s).
| Time | Temp. | Humidity | Pressure | Rain* | Wind** | Luminosity | Snow |
|---|---|---|---|---|---|---|---|
| 1787881963 | 12.78° C | 72% | 1019 hPa | 0 mm | - | - | - |
| 1787881006 | 14.44° C | 63% | 1019 hPa | 0 mm | - | - | - |
| 1787880054 | 14.44° C | 63% | 1018 hPa | 0 mm | - | - | - |
| 1787879108 | 14.44° C | 63% | 1018 hPa | 0 mm | - | - | - |
| 1787878166 | 15° C | 63% | 1018 hPa | 0 mm | - | - | - |
| 1787877206 | 15° C | 63% | 1018 hPa | 0 mm | - | - | - |
| 1787876247 | 15° C | 63% | 1016 hPa | 0 mm | - | - | - |
| 1787875304 | 16.67° C | 59% | 1016 hPa | 0 mm | - | - | - |
| 1787874358 | 16.67° C | 59% | 1016 hPa | 0 mm | - | - | - |
| 1787873407 | 16.67° C | 57% | 1016 hPa | 0 mm | - | - | - |
| 1787872453 | 16.67° C | 57% | 1014 hPa | 0 mm | - | - | - |
| 1787870519 | 17.22° C | 58% | 1014 hPa | 0 mm | - | - | - |
| 1787869567 | 17.22° C | 58% | 1012 hPa | 0 mm | - | - | - |
| 1787867561 | 17.78° C | 59% | 1012 hPa | 0 mm | - | - | - |
| 1787866593 | 17.78° C | 60% | 1012 hPa | 0 mm | - | - | - |
| 1787865646 | 17.78° C | 61% | 1011 hPa | 0 mm | - | - | - |
| 1787864696 | 17.78° C | 61% | 1011 hPa | 0 mm | - | - | - |
| 1787863736 | 17.78° C | 61% | 1011 hPa | 0 mm | - | - | - |
| 1787862792 | 17.78° C | 61% | 1011 hPa | 0 mm | - | - | - |
| 1787861844 | 17.78° C | 61% | 1011 hPa | 0 mm | - | - | - |
| 1787860895 | 17.78° C | 61% | 1011 hPa | 0 mm | - | - | - |
| 1787859955 | 17.78° C | 60% | 1011 hPa | 0 mm | - | - | - |
| 1787859010 | 17.78° C | 59% | 1011 hPa | 0 mm | - | - | - |
| 1787858068 | 17.78° C | 57% | 1012 hPa | 0 mm | - | - | - |
| 1787857079 | 18.33° C | 56% | 1012 hPa | 0 mm | - | - | - |
* Rain latest hour (hover to see other rain measurements)
** Current wind speed in m/s (hover to see current wind gust speed)